Ocean Beaut — WDD7485 — position and weather

sailwx.info

Track history (hours):
 
Tides and Currents Weather Stations Pressure Air Temp Water Temp Dewpoint Dewpoint Depression Visibility Wind Speed Wind Dir Waves Ship Positions

Ocean Beaut

Owner: John Moreland Fishing Inc., Astoria, OR. More information available from US FCC via Universal Licensing System.

Last reported at 2015-Aug-04 09:33 UTC. Time now 2015-Aug-04 09:42 UTC.
Position N 46°19' W 124°22'.

Length 20 m.

Type: Fishing. MMSI: 367187080.

Date/timePositionNaut miles runAvg speedWind from/ knotsBaromVisibWave heightAir tempDewpointWater temp
2015-Aug-04 09:33N 46°19' W 124°22'2 1.6
2015-Aug-04 08:33N 46°21' W 124°23'2 2.3
2015-Aug-04 07:33N 46°23' W 124°25'2 2.4
2015-Aug-04 06:32N 46°25' W 124°25'3 2.9
2015-Aug-04 05:33N 46°26' W 124°28'2 1.8
2015-Aug-04 04:33N 46°25' W 124°30'2 2.4
2015-Aug-04 03:33N 46°23' W 124°31'2 2.4
2015-Aug-04 02:33N 46°20' W 124°31'3 2.6
2015-Aug-04 01:33N 46°18' W 124°28'7 7.5
2015-Aug-04 00:33N 46°17' W 124°18'7 7.2
2015-Aug-03 23:33N 46°15' W 124°08'6 5.9
2015-Aug-03 22:33N 46°14' W 123°59'5 5.4
2015-Aug-03 21:33N 46°11' W 123°53'1 0.7
2015-Aug-03 20:31N 46°11' W 123°51'0 0.0
2015-Aug-03 19:31N 46°11' W 123°51'2 2.5
2015-Aug-03 18:33N 46°12' W 123°48'0 0.0
2015-Aug-03 17:33N 46°12' W 123°48'0 0.0
2015-Aug-03 16:33N 46°12' W 123°48'0 0.0
2015-Aug-03 15:33N 46°12' W 123°48'0 0.0
2015-Aug-03 14:33N 46°12' W 123°48'0 0.0
2015-Aug-03 13:33N 46°12' W 123°48'0 0.0
2015-Aug-03 12:33N 46°12' W 123°48'0 0.0
2015-Aug-03 11:33N 46°12' W 123°48'0 0.0
2015-Aug-03 10:33N 46°12' W 123°48'0 0.0
2015-Aug-03 09:30N 46°12' W 123°48'0 0.0
2015-Aug-03 08:33N 46°12' W 123°48'0 0.0
2015-Aug-03 07:33N 46°12' W 123°48'0 0.0
2015-Aug-03 06:33N 46°12' W 123°48'0 0.0
2015-Aug-03 05:30N 46°12' W 123°48'0 0.0
2015-Aug-03 04:33N 46°12' W 123°48'0 0.0
2015-Aug-03 03:33N 46°12' W 123°48'0 0.0
2015-Aug-03 02:33N 46°12' W 123°48'0 0.0
2015-Aug-03 01:33N 46°12' W 123°48'0 0.0
2015-Aug-03 00:33N 46°12' W 123°48'0 0.0
2015-Aug-02 23:33N 46°12' W 123°48'0 0.0
2015-Aug-02 22:33N 46°12' W 123°48'0 0.0
2015-Aug-02 21:33N 46°12' W 123°48'0 0.0
2015-Aug-02 20:33N 46°12' W 123°48'0 0.0
2015-Aug-02 19:33N 46°12' W 123°48'0 0.0
2015-Aug-02 18:33N 46°12' W 123°48'0 0.0
2015-Aug-02 17:33N 46°12' W 123°48'0 0.0
2015-Aug-02 16:33N 46°12' W 123°48'0 0.0
2015-Aug-02 15:33N 46°12' W 123°48'0 0.0
2015-Aug-02 14:33N 46°12' W 123°48'0 0.0
2015-Aug-02 13:33N 46°12' W 123°48'0 0.0
2015-Aug-02 12:33N 46°12' W 123°48'0 0.0
2015-Aug-02 11:33N 46°12' W 123°48'0 0.0
2015-Aug-02 10:33N 46°12' W 123°48'0 0.0
2015-Aug-02 09:33N 46°12' W 123°48'0 0.0
2015-Aug-02 08:33N 46°12' W 123°48'0 0.0
2015-Aug-02 07:33N 46°12' W 123°48'0 0.0
2015-Aug-02 06:33N 46°12' W 123°48'0 0.0
2015-Aug-02 05:33N 46°12' W 123°48'0 0.0
2015-Aug-02 04:33N 46°12' W 123°48'0 0.0
2015-Aug-02 03:33N 46°12' W 123°48'0 0.0
2015-Aug-02 02:33N 46°12' W 123°48'0 0.0
2015-Aug-02 01:33N 46°12' W 123°48'0 0.0
2015-Aug-02 00:33N 46°12' W 123°48'0 0.0
2015-Aug-01 23:30N 46°12' W 123°48'0 0.0
2015-Aug-01 22:33N 46°12' W 123°48'0 0.0
2015-Aug-01 21:33N 46°12' W 123°48'0 0.0
2015-Aug-01 20:33N 46°12' W 123°48'0 0.0
2015-Aug-01 19:34N 46°12' W 123°48'0 0.0
2015-Aug-01 18:34N 46°12' W 123°48'0 0.0
2015-Aug-01 17:33N 46°12' W 123°48'0 0.0
2015-Aug-01 16:33N 46°12' W 123°48'0 0.0
2015-Aug-01 15:34N 46°12' W 123°48'0 0.0
2015-Aug-01 14:34N 46°12' W 123°48'0 0.0
2015-Aug-01 13:22N 46°12' W 123°48'0 0.0
2015-Aug-01 12:34N 46°12' W 123°48'0 0.0
2015-Aug-01 11:34N 46°12' W 123°48'0 0.0
2015-Aug-01 10:31N 46°12' W 123°48'0 0.0
2015-Aug-01 09:31N 46°12' W 123°48'0 0.0
2015-Aug-01 08:31N 46°12' W 123°48'0 0.0
2015-Aug-01 07:31N 46°12' W 123°48'0 0.0
2015-Aug-01 06:31N 46°12' W 123°48'0 0.0
2015-Aug-01 05:31N 46°12' W 123°48'0 0.0
2015-Aug-01 04:31N 46°12' W 123°48'0 0.0
2015-Aug-01 03:25N 46°12' W 123°48'0 0.0
2015-Aug-01 02:31N 46°12' W 123°48'0 0.0
2015-Aug-01 01:31N 46°12' W 123°48'0 0.0
2015-Aug-01 00:31N 46°12' W 123°48'0 0.0
2015-Jul-31 23:28N 46°12' W 123°48'0 0.0
2015-Jul-31 22:31N 46°12' W 123°48'0 0.0
2015-Jul-31 21:28N 46°12' W 123°48'0 0.0
2015-Jul-31 20:31N 46°12' W 123°48'0 0.0
2015-Jul-31 19:31N 46°12' W 123°48'0 0.0
2015-Jul-31 18:31N 46°12' W 123°48'0 0.0
2015-Jul-31 17:31N 46°12' W 123°48'0 0.0
2015-Jul-31 16:31N 46°12' W 123°48'0 0.0
2015-Jul-31 15:28N 46°12' W 123°48'0 0.0
2015-Jul-31 14:31N 46°12' W 123°48'0 0.0
2015-Jul-31 13:31N 46°12' W 123°48'0 0.0
2015-Jul-31 12:31N 46°12' W 123°48'0 0.0
2015-Jul-31 11:31N 46°12' W 123°48'0 0.0
2015-Jul-31 10:31N 46°12' W 123°48'0 0.0
2015-Jul-31 09:31N 46°12' W 123°48'0 0.0
2015-Jul-31 08:31N 46°12' W 123°48'0 0.0
2015-Jul-31 07:31N 46°12' W 123°48'0 0.0
2015-Jul-31 06:31N 46°12' W 123°48'0 0.0
2015-Jul-31 05:31N 46°12' W 123°48'0 0.0
2015-Jul-31 04:31N 46°12' W 123°48'0 0.0
2015-Jul-31 03:31N 46°12' W 123°48'0 0.0
2015-Jul-31 02:28N 46°12' W 123°48'0 0.0
2015-Jul-31 01:31N 46°12' W 123°48'0 0.0
2015-Jul-31 00:31N 46°12' W 123°48'0 0.0
2015-Jul-30 23:31N 46°12' W 123°48'0 0.0
2015-Jul-30 22:31N 46°12' W 123°48'0 0.0
2015-Jul-30 21:31N 46°12' W 123°48'0 0.0
2015-Jul-30 20:31N 46°12' W 123°48'0 0.0
2015-Jul-30 19:31N 46°12' W 123°48'2 1.6
2015-Jul-30 18:33N 46°12' W 123°50'1 0.9
2015-Jul-30 17:33N 46°11' W 123°51'0 0.0
2015-Jul-30 16:33N 46°11' W 123°51'0 0.0
2015-Jul-30 15:33N 46°11' W 123°51'0 0.0
2015-Jul-30 14:33N 46°11' W 123°51'0 0.0
2015-Jul-30 13:34N 46°11' W 123°51'0 0.0
2015-Jul-30 12:33N 46°11' W 123°51'0 0.0
2015-Jul-30 11:33N 46°11' W 123°51'0 0.0
2015-Jul-30 10:34N 46°11' W 123°51'0 0.0
2015-Jul-30 09:33N 46°11' W 123°51'0 0.0
2015-Jul-30 08:34N 46°11' W 123°51'0 0.0
2015-Jul-30 07:34N 46°11' W 123°51'0 0.0
2015-Jul-30 06:34N 46°11' W 123°51'0 0.0
2015-Jul-30 05:34N 46°11' W 123°51'0 0.0
2015-Jul-30 04:34N 46°11' W 123°51'0 0.2
2015-Jul-30 03:34N 46°11' W 123°52'5 4.7
2015-Jul-30 02:33N 46°13' W 123°58'6 5.9
2015-Jul-30 01:32N 46°15' W 124°06'6 6.0
2015-Jul-30 00:32N 46°19' W 124°13'4 4.1
2015-Jul-29 23:33N 46°22' W 124°16'2 2.4
2015-Jul-29 22:33N 46°25' W 124°17'2 2.3
2015-Jul-29 21:32N 46°27' W 124°18'1 1.3
2015-Jul-29 20:33N 46°28' W 124°19'5 4.9
2015-Jul-29 19:33N 46°27' W 124°26'3 2.6
2015-Jul-29 18:33N 46°26' W 124°30'2 2.4
2015-Jul-29 17:33N 46°24' W 124°30'1 1.2
2015-Jul-29 16:33N 46°23' W 124°30'2 2.2
2015-Jul-29 15:31N 46°21' W 124°31'2 2.2
2015-Jul-29 14:33N 46°19' W 124°32'0 0.5
2015-Jul-29 13:31N 46°19' W 124°32'1 0.6
2015-Jul-29 12:33N 46°19' W 124°33'1 0.6
2015-Jul-29 11:33N 46°20' W 124°33'2 2.0
2015-Jul-29 10:33N 46°21' W 124°32'2 2.0
2015-Jul-29 09:34N 46°23' W 124°31'2 2.2
2015-Jul-29 08:32N 46°25' W 124°30'1 0.6
2015-Jul-29 07:33N 46°26' W 124°29'1 1.3
2015-Jul-29 06:33N 46°27' W 124°29'0 0.3
2015-Jul-29 05:33N 46°27' W 124°29'1 1.1
2015-Jul-29 04:33N 46°26' W 124°29'1 1.2
2015-Jul-29 03:33N 46°25' W 124°29'1 0.8
2015-Jul-29 02:33N 46°24' W 124°30'2 2.0
2015-Jul-29 01:33N 46°22' W 124°31'2 2.1
2015-Jul-29 00:33N 46°20' W 124°31'2 2.1
2015-Jul-28 23:32N 46°18' W 124°32'5 4.6
2015-Jul-28 22:33N 46°22' W 124°30'3 3.2
2015-Jul-28 21:33N 46°24' W 124°26'1 1.3
2015-Jul-28 20:32N 46°25' W 124°24'2 2.3
2015-Jul-28 19:30N 46°22' W 124°23'2 2.3
2015-Jul-28 18:33N 46°20' W 124°21'3 2.5
2015-Jul-28 17:33N 46°18' W 124°19'1 1.4
2015-Jul-28 16:30N 46°17' W 124°21'2 1.9
2015-Jul-28 15:32N 46°19' W 124°23'2 2.4
2015-Jul-28 14:32N 46°19' W 124°26'3 2.6
2015-Jul-28 13:33N 46°20' W 124°30'2 1.9
2015-Jul-28 12:24N 46°22' W 124°31'2 2.7
2015-Jul-28 11:33N 46°24' W 124°30'3 2.6
2015-Jul-28 10:33N 46°27' W 124°29'3 2.6
2015-Jul-28 09:33N 46°29' W 124°29'3 2.6
2015-Jul-28 08:33N 46°32' W 124°29'7 7.1
2015-Jul-28 07:31N 46°39' W 124°31'8 7.9
2015-Jul-28 06:32N 46°47' W 124°33'3 0.1
2015-Jul-26 21:27N 46°48' W 124°30'7 7.7
2015-Jul-26 20:29N 46°41' W 124°25'8 8.1
2015-Jul-26 19:33N 46°34' W 124°22'8 8.1
2015-Jul-26 18:33N 46°26' W 124°17'8 8.3
2015-Jul-26 17:33N 46°19' W 124°13'7 6.9
2015-Jul-26 16:33N 46°16' W 124°04'7 7.2
2015-Jul-26 15:33N 46°12' W 123°55'2 2.3
2015-Jul-26 14:33N 46°11' W 123°51'0 0.1
2015-Jul-26 13:32N 46°11' W 123°52'0 0.0
2015-Jul-26 12:34N 46°11' W 123°52'2 2.4
2015-Jul-26 11:32N 46°12' W 123°48'0 0.0
2015-Jul-26 10:32N 46°12' W 123°48'0 0.0
2015-Jul-26 09:32N 46°12' W 123°48'0 0.0
2015-Jul-26 08:32N 46°12' W 123°48'0 0.0
2015-Jul-26 07:32N 46°12' W 123°48'0 0.0
2015-Jul-26 06:32N 46°12' W 123°48'0 0.0
2015-Jul-26 05:32N 46°12' W 123°48'0 0.0
2015-Jul-26 04:32N 46°12' W 123°48'0 0.0
2015-Jul-26 03:32N 46°12' W 123°48'0 0.0
2015-Jul-26 02:32N 46°12' W 123°48'0 0.0
2015-Jul-26 01:32N 46°12' W 123°48'0 0.0
2015-Jul-26 00:32N 46°12' W 123°48'0 0.0
2015-Jul-25 23:32N 46°12' W 123°48'0 0.0
2015-Jul-25 22:32N 46°12' W 123°48'0 0.0
2015-Jul-25 21:32N 46°12' W 123°48'0 0.0
2015-Jul-25 20:32N 46°12' W 123°48'0 0.0
2015-Jul-25 19:32N 46°12' W 123°48'0 0.0
2015-Jul-25 18:32N 46°12' W 123°48'0 0.0
2015-Jul-25 17:32N 46°12' W 123°48'0 0.0
2015-Jul-25 16:32N 46°12' W 123°48'0 0.0
2015-Jul-25 15:32N 46°12' W 123°48'0 0.0
2015-Jul-25 14:32N 46°12' W 123°48'0 0.0
2015-Jul-25 13:32N 46°12' W 123°48'0 0.0
2015-Jul-25 12:32N 46°12' W 123°48'0 0.0
2015-Jul-25 11:32N 46°12' W 123°48'0 0.0
2015-Jul-25 10:32N 46°12' W 123°48'  
Track history (hours):
 
Tides and Currents Weather Stations Pressure Air Temp Water Temp Dewpoint Dewpoint Depression Visibility Wind Speed Wind Dir Waves Ship Positions

Ocean Beaut

Owner: John Moreland Fishing Inc., Astoria, OR. More information available from US FCC via Universal Licensing System.

Last reported at 2015-Aug-04 09:33 UTC. Time now 2015-Aug-04 09:42 UTC.
Position N 46°19' W 124°22'.

Length 20 m.

Type: Fishing. MMSI: 367187080.

Date/timePositionNaut miles runAvg speedWind from/ knotsBaromVisibWave heightAir tempDewpointWater temp
2015-Aug-04 09:33N 46°19' W 124°22'2 1.6
2015-Aug-04 08:33N 46°21' W 124°23'2 2.3
2015-Aug-04 07:33N 46°23' W 124°25'2 2.4
2015-Aug-04 06:32N 46°25' W 124°25'3 2.9
2015-Aug-04 05:33N 46°26' W 124°28'2 1.8
2015-Aug-04 04:33N 46°25' W 124°30'2 2.4
2015-Aug-04 03:33N 46°23' W 124°31'2 2.4
2015-Aug-04 02:33N 46°20' W 124°31'3 2.6
2015-Aug-04 01:33N 46°18' W 124°28'7 7.5
2015-Aug-04 00:33N 46°17' W 124°18'7 7.2
2015-Aug-03 23:33N 46°15' W 124°08'6 5.9
2015-Aug-03 22:33N 46°14' W 123°59'5 5.4
2015-Aug-03 21:33N 46°11' W 123°53'1 0.7
2015-Aug-03 20:31N 46°11' W 123°51'0 0.0
2015-Aug-03 19:31N 46°11' W 123°51'2 2.5
2015-Aug-03 18:33N 46°12' W 123°48'0 0.0
2015-Aug-03 17:33N 46°12' W 123°48'0 0.0
2015-Aug-03 16:33N 46°12' W 123°48'0 0.0
2015-Aug-03 15:33N 46°12' W 123°48'0 0.0
2015-Aug-03 14:33N 46°12' W 123°48'0 0.0
2015-Aug-03 13:33N 46°12' W 123°48'0 0.0
2015-Aug-03 12:33N 46°12' W 123°48'0 0.0
2015-Aug-03 11:33N 46°12' W 123°48'0 0.0
2015-Aug-03 10:33N 46°12' W 123°48'0 0.0
2015-Aug-03 09:30N 46°12' W 123°48'0 0.0
2015-Aug-03 08:33N 46°12' W 123°48'0 0.0
2015-Aug-03 07:33N 46°12' W 123°48'0 0.0
2015-Aug-03 06:33N 46°12' W 123°48'0 0.0
2015-Aug-03 05:30N 46°12' W 123°48'0 0.0
2015-Aug-03 04:33N 46°12' W 123°48'0 0.0
2015-Aug-03 03:33N 46°12' W 123°48'0 0.0
2015-Aug-03 02:33N 46°12' W 123°48'0 0.0
2015-Aug-03 01:33N 46°12' W 123°48'0 0.0
2015-Aug-03 00:33N 46°12' W 123°48'0 0.0
2015-Aug-02 23:33N 46°12' W 123°48'0 0.0
2015-Aug-02 22:33N 46°12' W 123°48'0 0.0
2015-Aug-02 21:33N 46°12' W 123°48'0 0.0
2015-Aug-02 20:33N 46°12' W 123°48'0 0.0
2015-Aug-02 19:33N 46°12' W 123°48'0 0.0
2015-Aug-02 18:33N 46°12' W 123°48'0 0.0
2015-Aug-02 17:33N 46°12' W 123°48'0 0.0
2015-Aug-02 16:33N 46°12' W 123°48'0 0.0
2015-Aug-02 15:33N 46°12' W 123°48'0 0.0
2015-Aug-02 14:33N 46°12' W 123°48'0 0.0
2015-Aug-02 13:33N 46°12' W 123°48'0 0.0
2015-Aug-02 12:33N 46°12' W 123°48'0 0.0
2015-Aug-02 11:33N 46°12' W 123°48'0 0.0
2015-Aug-02 10:33N 46°12' W 123°48'0 0.0
2015-Aug-02 09:33N 46°12' W 123°48'0 0.0
2015-Aug-02 08:33N 46°12' W 123°48'0 0.0
2015-Aug-02 07:33N 46°12' W 123°48'0 0.0
2015-Aug-02 06:33N 46°12' W 123°48'0 0.0
2015-Aug-02 05:33N 46°12' W 123°48'0 0.0
2015-Aug-02 04:33N 46°12' W 123°48'0 0.0
2015-Aug-02 03:33N 46°12' W 123°48'0 0.0
2015-Aug-02 02:33N 46°12' W 123°48'0 0.0
2015-Aug-02 01:33N 46°12' W 123°48'0 0.0
2015-Aug-02 00:33N 46°12' W 123°48'0 0.0
2015-Aug-01 23:30N 46°12' W 123°48'0 0.0
2015-Aug-01 22:33N 46°12' W 123°48'0 0.0
2015-Aug-01 21:33N 46°12' W 123°48'0 0.0
2015-Aug-01 20:33N 46°12' W 123°48'0 0.0
2015-Aug-01 19:34N 46°12' W 123°48'0 0.0
2015-Aug-01 18:34N 46°12' W 123°48'0 0.0
2015-Aug-01 17:33N 46°12' W 123°48'0 0.0
2015-Aug-01 16:33N 46°12' W 123°48'0 0.0
2015-Aug-01 15:34N 46°12' W 123°48'0 0.0
2015-Aug-01 14:34N 46°12' W 123°48'0 0.0
2015-Aug-01 13:22N 46°12' W 123°48'0 0.0
2015-Aug-01 12:34N 46°12' W 123°48'0 0.0
2015-Aug-01 11:34N 46°12' W 123°48'0 0.0
2015-Aug-01 10:31N 46°12' W 123°48'0 0.0
2015-Aug-01 09:31N 46°12' W 123°48'0 0.0
2015-Aug-01 08:31N 46°12' W 123°48'0 0.0
2015-Aug-01 07:31N 46°12' W 123°48'0 0.0
2015-Aug-01 06:31N 46°12' W 123°48'0 0.0
2015-Aug-01 05:31N 46°12' W 123°48'0 0.0
2015-Aug-01 04:31N 46°12' W 123°48'0 0.0
2015-Aug-01 03:25N 46°12' W 123°48'0 0.0
2015-Aug-01 02:31N 46°12' W 123°48'0 0.0
2015-Aug-01 01:31N 46°12' W 123°48'0 0.0
2015-Aug-01 00:31N 46°12' W 123°48'0 0.0
2015-Jul-31 23:28N 46°12' W 123°48'0 0.0
2015-Jul-31 22:31N 46°12' W 123°48'0 0.0
2015-Jul-31 21:28N 46°12' W 123°48'0 0.0
2015-Jul-31 20:31N 46°12' W 123°48'0 0.0
2015-Jul-31 19:31N 46°12' W 123°48'0 0.0
2015-Jul-31 18:31N 46°12' W 123°48'0 0.0
2015-Jul-31 17:31N 46°12' W 123°48'0 0.0
2015-Jul-31 16:31N 46°12' W 123°48'0 0.0
2015-Jul-31 15:28N 46°12' W 123°48'0 0.0
2015-Jul-31 14:31N 46°12' W 123°48'0 0.0
2015-Jul-31 13:31N 46°12' W 123°48'0 0.0
2015-Jul-31 12:31N 46°12' W 123°48'0 0.0
2015-Jul-31 11:31N 46°12' W 123°48'0 0.0
2015-Jul-31 10:31N 46°12' W 123°48'0 0.0
2015-Jul-31 09:31N 46°12' W 123°48'0 0.0
2015-Jul-31 08:31N 46°12' W 123°48'0 0.0
2015-Jul-31 07:31N 46°12' W 123°48'0 0.0
2015-Jul-31 06:31N 46°12' W 123°48'0 0.0
2015-Jul-31 05:31N 46°12' W 123°48'0 0.0
2015-Jul-31 04:31N 46°12' W 123°48'0 0.0
2015-Jul-31 03:31N 46°12' W 123°48'0 0.0
2015-Jul-31 02:28N 46°12' W 123°48'0 0.0
2015-Jul-31 01:31N 46°12' W 123°48'0 0.0
2015-Jul-31 00:31N 46°12' W 123°48'0 0.0
2015-Jul-30 23:31N 46°12' W 123°48'0 0.0
2015-Jul-30 22:31N 46°12' W 123°48'0 0.0
2015-Jul-30 21:31N 46°12' W 123°48'0 0.0
2015-Jul-30 20:31N 46°12' W 123°48'0 0.0
2015-Jul-30 19:31N 46°12' W 123°48'2 1.6
2015-Jul-30 18:33N 46°12' W 123°50'1 0.9
2015-Jul-30 17:33N 46°11' W 123°51'0 0.0
2015-Jul-30 16:33N 46°11' W 123°51'0 0.0
2015-Jul-30 15:33N 46°11' W 123°51'0 0.0
2015-Jul-30 14:33N 46°11' W 123°51'0 0.0
2015-Jul-30 13:34N 46°11' W 123°51'0 0.0
2015-Jul-30 12:33N 46°11' W 123°51'0 0.0
2015-Jul-30 11:33N 46°11' W 123°51'0 0.0
2015-Jul-30 10:34N 46°11' W 123°51'0 0.0
2015-Jul-30 09:33N 46°11' W 123°51'0 0.0
2015-Jul-30 08:34N 46°11' W 123°51'0 0.0
2015-Jul-30 07:34N 46°11' W 123°51'0 0.0
2015-Jul-30 06:34N 46°11' W 123°51'0 0.0
2015-Jul-30 05:34N 46°11' W 123°51'0 0.0
2015-Jul-30 04:34N 46°11' W 123°51'0 0.2
2015-Jul-30 03:34N 46°11' W 123°52'5 4.7
2015-Jul-30 02:33N 46°13' W 123°58'6 5.9
2015-Jul-30 01:32N 46°15' W 124°06'6 6.0
2015-Jul-30 00:32N 46°19' W 124°13'4 4.1
2015-Jul-29 23:33N 46°22' W 124°16'2 2.4
2015-Jul-29 22:33N 46°25' W 124°17'2 2.3
2015-Jul-29 21:32N 46°27' W 124°18'1 1.3
2015-Jul-29 20:33N 46°28' W 124°19'5 4.9
2015-Jul-29 19:33N 46°27' W 124°26'3 2.6
2015-Jul-29 18:33N 46°26' W 124°30'2 2.4
2015-Jul-29 17:33N 46°24' W 124°30'1 1.2
2015-Jul-29 16:33N 46°23' W 124°30'2 2.2
2015-Jul-29 15:31N 46°21' W 124°31'2 2.2
2015-Jul-29 14:33N 46°19' W 124°32'0 0.5
2015-Jul-29 13:31N 46°19' W 124°32'1 0.6
2015-Jul-29 12:33N 46°19' W 124°33'1 0.6
2015-Jul-29 11:33N 46°20' W 124°33'2 2.0
2015-Jul-29 10:33N 46°21' W 124°32'2 2.0
2015-Jul-29 09:34N 46°23' W 124°31'2 2.2
2015-Jul-29 08:32N 46°25' W 124°30'1 0.6
2015-Jul-29 07:33N 46°26' W 124°29'1 1.3
2015-Jul-29 06:33N 46°27' W 124°29'0 0.3
2015-Jul-29 05:33N 46°27' W 124°29'1 1.1
2015-Jul-29 04:33N 46°26' W 124°29'1 1.2
2015-Jul-29 03:33N 46°25' W 124°29'1 0.8
2015-Jul-29 02:33N 46°24' W 124°30'2 2.0
2015-Jul-29 01:33N 46°22' W 124°31'2 2.1
2015-Jul-29 00:33N 46°20' W 124°31'2 2.1
2015-Jul-28 23:32N 46°18' W 124°32'5 4.6
2015-Jul-28 22:33N 46°22' W 124°30'3 3.2
2015-Jul-28 21:33N 46°24' W 124°26'1 1.3
2015-Jul-28 20:32N 46°25' W 124°24'2 2.3
2015-Jul-28 19:30N 46°22' W 124°23'2 2.3
2015-Jul-28 18:33N 46°20' W 124°21'3 2.5
2015-Jul-28 17:33N 46°18' W 124°19'1 1.4
2015-Jul-28 16:30N 46°17' W 124°21'2 1.9
2015-Jul-28 15:32N 46°19' W 124°23'2 2.4
2015-Jul-28 14:32N 46°19' W 124°26'3 2.6
2015-Jul-28 13:33N 46°20' W 124°30'2 1.9
2015-Jul-28 12:24N 46°22' W 124°31'2 2.7
2015-Jul-28 11:33N 46°24' W 124°30'3 2.6
2015-Jul-28 10:33N 46°27' W 124°29'3 2.6
2015-Jul-28 09:33N 46°29' W 124°29'3 2.6
2015-Jul-28 08:33N 46°32' W 124°29'7 7.1
2015-Jul-28 07:31N 46°39' W 124°31'8 7.9
2015-Jul-28 06:32N 46°47' W 124°33'3 0.1
2015-Jul-26 21:27N 46°48' W 124°30'7 7.7
2015-Jul-26 20:29N 46°41' W 124°25'8 8.1
2015-Jul-26 19:33N 46°34' W 124°22'8 8.1
2015-Jul-26 18:33N 46°26' W 124°17'8 8.3
2015-Jul-26 17:33N 46°19' W 124°13'7 6.9
2015-Jul-26 16:33N 46°16' W 124°04'7 7.2
2015-Jul-26 15:33N 46°12' W 123°55'2 2.3
2015-Jul-26 14:33N 46°11' W 123°51'0 0.1
2015-Jul-26 13:32N 46°11' W 123°52'0 0.0
2015-Jul-26 12:34N 46°11' W 123°52'2 2.4
2015-Jul-26 11:32N 46°12' W 123°48'0 0.0
2015-Jul-26 10:32N 46°12' W 123°48'0 0.0
2015-Jul-26 09:32N 46°12' W 123°48'0 0.0
2015-Jul-26 08:32N 46°12' W 123°48'0 0.0
2015-Jul-26 07:32N 46°12' W 123°48'0 0.0
2015-Jul-26 06:32N 46°12' W 123°48'0 0.0
2015-Jul-26 05:32N 46°12' W 123°48'0 0.0
2015-Jul-26 04:32N 46°12' W 123°48'0 0.0
2015-Jul-26 03:32N 46°12' W 123°48'0 0.0
2015-Jul-26 02:32N 46°12' W 123°48'0 0.0
2015-Jul-26 01:32N 46°12' W 123°48'0 0.0
2015-Jul-26 00:32N 46°12' W 123°48'0 0.0
2015-Jul-25 23:32N 46°12' W 123°48'0 0.0
2015-Jul-25 22:32N 46°12' W 123°48'0 0.0
2015-Jul-25 21:32N 46°12' W 123°48'0 0.0
2015-Jul-25 20:32N 46°12' W 123°48'0 0.0
2015-Jul-25 19:32N 46°12' W 123°48'0 0.0
2015-Jul-25 18:32N 46°12' W 123°48'0 0.0
2015-Jul-25 17:32N 46°12' W 123°48'0 0.0
2015-Jul-25 16:32N 46°12' W 123°48'0 0.0
2015-Jul-25 15:32N 46°12' W 123°48'0 0.0
2015-Jul-25 14:32N 46°12' W 123°48'0 0.0
2015-Jul-25 13:32N 46°12' W 123°48'0 0.0
2015-Jul-25 12:32N 46°12' W 123°48'0 0.0
2015-Jul-25 11:32N 46°12' W 123°48'0 0.0
2015-Jul-25 10:32N 46°12' W 123°48'  

Dump ship's entire track history